createdAt,value
2022-09-30T00:01:29.429Z,2.67
2022-09-30T00:03:57.223Z,2.53
2022-09-30T00:06:24.983Z,2.22
2022-09-30T00:08:53.447Z,2.38
2022-09-30T00:11:21.156Z,2.30
2022-09-30T00:13:48.855Z,2.55
2022-09-30T00:16:16.671Z,2.60
2022-09-30T00:18:44.413Z,2.40
2022-09-30T00:21:12.323Z,2.28
2022-09-30T00:23:40.033Z,2.70
2022-09-30T00:26:07.727Z,2.50
2022-09-30T00:28:35.388Z,2.42
2022-09-30T00:31:03.240Z,2.60
2022-09-30T00:33:30.970Z,2.63
2022-09-30T00:35:59.104Z,2.50
2022-09-30T00:38:26.854Z,2.58
2022-09-30T00:40:54.529Z,2.83
2022-09-30T00:43:22.210Z,2.65
2022-09-30T00:45:49.881Z,2.75
2022-09-30T00:48:17.717Z,2.60
2022-09-30T00:50:47.190Z,2.60
2022-09-30T00:53:15.113Z,2.65
2022-09-30T00:55:42.847Z,2.70
2022-09-30T00:58:10.769Z,2.35
2022-09-30T01:00:38.579Z,2.50
2022-09-30T01:03:06.341Z,2.55
2022-09-30T01:05:34.784Z,2.40
2022-09-30T01:08:02.504Z,2.60
2022-09-30T01:10:30.316Z,2.78
2022-09-30T01:12:58.030Z,2.88
2022-09-30T01:15:25.917Z,2.67
2022-09-30T01:17:54.010Z,2.83
2022-09-30T01:20:21.871Z,2.65
2022-09-30T01:22:49.725Z,2.83
2022-09-30T01:25:17.569Z,2.58
2022-09-30T01:27:45.433Z,2.60
2022-09-30T01:30:13.245Z,2.63
2022-09-30T01:32:41.112Z,2.42
2022-09-30T01:35:08.933Z,3.00
2022-09-30T01:37:37.049Z,2.80
2022-09-30T01:40:05.139Z,2.70
2022-09-30T01:42:33.015Z,2.42
2022-09-30T01:45:03.392Z,2.80
2022-09-30T01:47:31.306Z,2.72
2022-09-30T01:49:59.131Z,2.67
2022-09-30T01:52:28.431Z,2.75
2022-09-30T01:54:56.348Z,2.63
2022-09-30T01:57:24.168Z,2.67
2022-09-30T01:59:52.095Z,2.78
2022-09-30T02:02:20.192Z,2.88
2022-09-30T02:04:48.090Z,2.60
2022-09-30T02:07:16.255Z,2.70
2022-09-30T02:09:44.150Z,3.00
2022-09-30T02:12:11.974Z,3.00
2022-09-30T02:14:39.984Z,2.78
2022-09-30T02:17:07.928Z,2.80
2022-09-30T02:19:36.118Z,2.72
2022-09-30T02:22:03.944Z,2.72
2022-09-30T02:24:32.201Z,2.80
2022-09-30T02:27:00.006Z,2.75
2022-09-30T02:29:27.823Z,2.92
2022-09-30T02:31:55.623Z,2.40
2022-09-30T02:34:23.457Z,2.95
2022-09-30T02:36:51.302Z,2.70
2022-09-30T02:39:19.070Z,2.75
2022-09-30T02:41:46.954Z,2.60
2022-09-30T02:44:14.966Z,2.67
2022-09-30T02:46:43.032Z,3.03
2022-09-30T02:49:11.615Z,2.90
2022-09-30T02:51:39.390Z,2.70
2022-09-30T02:54:07.306Z,2.80
2022-09-30T02:56:35.236Z,2.70
2022-09-30T02:59:03.194Z,2.70
2022-09-30T03:01:31.113Z,3.00
2022-09-30T03:03:59.035Z,2.60
2022-09-30T03:06:26.971Z,2.60
2022-09-30T03:08:55.022Z,2.88
2022-09-30T03:11:22.893Z,2.80
2022-09-30T03:13:50.763Z,2.47
2022-09-30T03:16:18.633Z,2.55
2022-09-30T03:18:47.015Z,2.83
2022-09-30T03:21:14.973Z,2.78
2022-09-30T03:23:42.801Z,2.72
2022-09-30T03:26:10.607Z,3.10
2022-09-30T03:28:38.436Z,2.75
2022-09-30T03:31:06.834Z,2.88
2022-09-30T03:33:35.036Z,3.00
2022-09-30T03:36:03.210Z,2.63
2022-09-30T03:38:31.074Z,2.95
2022-09-30T03:40:58.913Z,2.60
2022-09-30T03:43:27.011Z,2.72
2022-09-30T03:45:54.961Z,2.80
2022-09-30T03:48:22.780Z,2.90
2022-09-30T03:50:50.609Z,2.60
2022-09-30T03:53:18.445Z,2.67
2022-09-30T03:55:47.907Z,2.75
2022-09-30T03:58:16.024Z,2.67
2022-09-30T04:00:44.168Z,2.92
2022-09-30T04:03:12.064Z,2.70
2022-09-30T04:05:39.881Z,2.90
2022-09-30T04:08:07.670Z,2.58
2022-09-30T04:10:35.526Z,2.97
2022-09-30T04:13:03.363Z,2.83
2022-09-30T04:15:31.204Z,2.58
2022-09-30T04:17:59.002Z,2.60
2022-09-30T04:20:27.168Z,2.75
2022-09-30T04:22:54.961Z,2.55
2022-09-30T04:25:23.201Z,2.65
2022-09-30T04:27:51.027Z,2.80
2022-09-30T04:30:23.868Z,2.53
2022-09-30T04:32:52.882Z,2.97
2022-09-30T04:35:20.845Z,2.88
2022-09-30T04:37:48.635Z,3.20
2022-09-30T04:40:16.527Z,2.85
2022-09-30T04:42:44.507Z,2.65
2022-09-30T04:45:12.524Z,2.72
2022-09-30T04:47:40.381Z,3.30
2022-09-30T04:50:08.557Z,2.88
2022-09-30T04:52:36.342Z,2.85
2022-09-30T04:55:04.116Z,2.90
2022-09-30T04:57:31.989Z,2.80
2022-09-30T04:59:59.900Z,2.60
2022-09-30T05:02:27.737Z,2.72
2022-09-30T05:04:55.955Z,3.00
2022-09-30T05:07:23.759Z,3.10
2022-09-30T05:09:53.356Z,2.85
2022-09-30T05:12:21.186Z,2.90
2022-09-30T05:14:49.253Z,2.95
2022-09-30T05:17:17.238Z,2.90
2022-09-30T05:19:45.055Z,2.80
2022-09-30T05:22:14.152Z,3.10
2022-09-30T05:24:42.005Z,2.85
2022-09-30T05:27:09.900Z,2.60
2022-09-30T05:29:37.753Z,2.70
2022-09-30T05:32:06.140Z,2.75
2022-09-30T05:34:33.878Z,2.60
2022-09-30T05:37:01.752Z,2.72
2022-09-30T05:39:29.676Z,2.83
2022-09-30T05:41:57.477Z,3.00
2022-09-30T05:44:25.334Z,2.80
2022-09-30T05:46:53.239Z,2.72
2022-09-30T05:49:21.173Z,2.83
2022-09-30T05:51:49.113Z,2.72
2022-09-30T05:54:17.018Z,2.83
2022-09-30T05:56:44.859Z,2.80
2022-09-30T05:59:13.337Z,2.85
2022-09-30T06:01:41.181Z,2.70
2022-09-30T06:04:09.076Z,3.10
2022-09-30T06:06:37.073Z,3.00
2022-09-30T06:09:04.959Z,3.05
2022-09-30T06:11:32.981Z,2.97
2022-09-30T06:14:00.767Z,2.75
2022-09-30T06:16:28.563Z,3.22
2022-09-30T06:18:56.428Z,3.00
2022-09-30T06:21:24.247Z,3.08
2022-09-30T06:23:52.187Z,2.90
2022-09-30T06:26:19.956Z,2.97
2022-09-30T06:28:47.767Z,2.70
2022-09-30T06:31:16.012Z,2.72
2022-09-30T06:33:43.954Z,2.55
2022-09-30T06:36:12.113Z,2.47
2022-09-30T06:38:40.555Z,2.80
2022-09-30T06:41:08.479Z,2.83
2022-09-30T06:43:45.842Z,2.53
2022-09-30T06:46:19.001Z,2.60
2022-09-30T06:48:49.857Z,2.80
2022-09-30T06:51:17.675Z,2.63
2022-09-30T06:53:48.141Z,2.70
2022-09-30T06:56:19.431Z,2.67
2022-09-30T06:58:47.203Z,2.70
2022-09-30T07:01:15.713Z,2.67
2022-09-30T07:03:43.753Z,2.60
2022-09-30T07:06:11.588Z,2.38
2022-09-30T07:08:39.413Z,2.60
2022-09-30T07:11:11.775Z,2.50
2022-09-30T07:13:39.678Z,2.50
2022-09-30T07:16:07.568Z,2.83
2022-09-30T07:18:35.525Z,2.47
2022-09-30T07:21:03.552Z,2.47
2022-09-30T07:23:32.130Z,2.60
2022-09-30T07:26:01.152Z,2.75
2022-09-30T07:28:31.393Z,2.60
2022-09-30T07:31:19.924Z,2.60
2022-09-30T07:33:47.055Z,2.50
2022-09-30T07:36:16.071Z,2.70
2022-09-30T07:38:43.879Z,2.53
2022-09-30T07:41:11.827Z,2.60
2022-09-30T07:43:40.222Z,2.70
2022-09-30T07:46:08.125Z,2.70
2022-09-30T07:48:43.598Z,2.42
2022-09-30T07:51:11.405Z,2.22
2022-09-30T07:53:39.300Z,2.72
2022-09-30T07:56:07.143Z,2.20
2022-09-30T07:58:34.978Z,2.15
2022-09-30T08:01:03.127Z,2.38
2022-09-30T08:03:30.949Z,2.40
2022-09-30T08:05:58.887Z,2.28
2022-09-30T08:08:26.732Z,2.20
2022-09-30T08:10:54.695Z,2.38
2022-09-30T08:13:22.526Z,2.35
2022-09-30T08:15:50.329Z,2.53
2022-09-30T08:18:18.143Z,2.47
2022-09-30T08:20:46.043Z,2.42
2022-09-30T08:23:13.839Z,2.42
2022-09-30T08:25:41.664Z,2.70
2022-09-30T08:28:09.470Z,2.28
2022-09-30T08:30:37.279Z,2.40
2022-09-30T08:33:05.296Z,2.30
2022-09-30T08:35:33.224Z,2.20
2022-09-30T08:38:01.034Z,2.70
2022-09-30T08:40:28.974Z,2.28
2022-09-30T08:42:57.689Z,2.20
2022-09-30T08:45:25.813Z,2.20
2022-09-30T08:47:53.628Z,2.20
2022-09-30T08:50:21.454Z,2.13
2022-09-30T08:52:49.669Z,2.20
2022-09-30T08:55:17.631Z,2.20
2022-09-30T08:57:47.556Z,2.10
2022-09-30T09:00:16.256Z,2.10
2022-09-30T09:02:44.323Z,2.30
2022-09-30T09:05:12.216Z,2.50
2022-09-30T09:07:40.061Z,2.28
2022-09-30T09:10:07.999Z,2.10
2022-09-30T09:12:35.858Z,2.20
2022-09-30T09:15:03.724Z,2.17
2022-09-30T09:17:31.524Z,2.22
2022-09-30T09:19:59.372Z,2.10
2022-09-30T09:22:28.201Z,2.13
2022-09-30T09:24:56.252Z,2.20
2022-09-30T09:27:25.543Z,1.92
2022-09-30T09:29:53.545Z,2.30
2022-09-30T09:32:21.513Z,2.25
2022-09-30T09:34:49.583Z,2.10
2022-09-30T09:37:17.430Z,2.30
2022-09-30T09:39:45.472Z,2.05
2022-09-30T09:42:13.362Z,2.42
2022-09-30T09:44:41.152Z,2.10
2022-09-30T09:47:14.277Z,2.10
2022-09-30T09:49:42.132Z,2.10
2022-09-30T09:52:11.163Z,2.40
2022-09-30T09:54:38.937Z,2.17
2022-09-30T09:57:09.409Z,1.95
2022-09-30T09:59:37.461Z,2.10
2022-09-30T10:02:05.516Z,2.00
2022-09-30T10:04:35.472Z,1.90
2022-09-30T10:07:03.286Z,2.00
2022-09-30T10:09:31.273Z,2.22
2022-09-30T10:11:59.126Z,2.13
2022-09-30T10:14:26.953Z,2.08
2022-09-30T10:16:54.770Z,2.08
2022-09-30T10:19:22.663Z,1.95
2022-09-30T10:21:52.884Z,2.00
2022-09-30T10:24:23.250Z,2.20
2022-09-30T10:26:51.059Z,2.22
2022-09-30T10:29:18.861Z,2.30
2022-09-30T10:31:47.273Z,1.80
2022-09-30T10:34:15.372Z,1.80
2022-09-30T10:36:43.542Z,2.00
2022-09-30T10:39:11.380Z,2.03
2022-09-30T10:41:39.251Z,1.83
2022-09-30T10:44:07.267Z,2.22
2022-09-30T10:46:35.511Z,2.08
2022-09-30T10:49:03.428Z,2.05
2022-09-30T10:51:31.404Z,2.03
2022-09-30T10:53:59.227Z,1.92
2022-09-30T10:56:27.049Z,1.98
2022-09-30T10:58:57.991Z,2.15
2022-09-30T11:01:26.232Z,2.10
2022-09-30T11:03:54.580Z,2.00
2022-09-30T11:06:22.683Z,1.90
2022-09-30T11:08:50.556Z,1.95
2022-09-30T11:11:18.443Z,1.92
2022-09-30T11:13:46.447Z,2.05
2022-09-30T11:16:15.432Z,1.80
2022-09-30T11:18:43.390Z,1.92
2022-09-30T11:21:11.253Z,1.90
2022-09-30T11:23:39.079Z,2.00
2022-09-30T11:26:06.974Z,2.08
2022-09-30T11:28:34.809Z,1.92
2022-09-30T11:31:06.839Z,2.20
2022-09-30T11:33:35.309Z,1.80
2022-09-30T11:36:03.137Z,2.00
2022-09-30T11:38:31.016Z,1.88
2022-09-30T11:40:58.918Z,2.10
2022-09-30T11:43:26.773Z,2.00
2022-09-30T11:45:55.234Z,1.90
2022-09-30T11:48:23.227Z,1.88
2022-09-30T11:50:51.079Z,2.00
2022-09-30T11:53:18.856Z,2.00
2022-09-30T11:55:46.707Z,1.77
2022-09-30T11:58:39.461Z,2.05
2022-09-30T12:01:02.512Z,2.00
2022-09-30T12:03:30.527Z,1.95
2022-09-30T12:05:58.382Z,1.88
2022-09-30T12:08:26.601Z,1.90
2022-09-30T12:10:54.378Z,1.80
2022-09-30T12:13:22.521Z,1.90
2022-09-30T12:15:50.339Z,1.90
2022-09-30T12:18:18.547Z,2.00
2022-09-30T12:20:46.691Z,1.90
2022-09-30T12:23:14.474Z,1.77
2022-09-30T12:25:42.298Z,1.70
2022-09-30T12:28:25.923Z,1.63
2022-09-30T12:30:53.799Z,1.90
2022-09-30T12:33:22.291Z,1.90
2022-09-30T12:35:51.053Z,1.70
2022-09-30T12:38:19.015Z,2.00
2022-09-30T12:40:52.329Z,1.80
2022-09-30T12:43:20.971Z,2.05
2022-09-30T12:45:48.888Z,1.63
2022-09-30T12:48:17.757Z,1.90
2022-09-30T12:50:45.863Z,1.80
2022-09-30T12:53:13.662Z,1.60
2022-09-30T12:55:41.599Z,1.80
2022-09-30T12:58:09.933Z,1.75
2022-09-30T13:00:37.813Z,1.63
2022-09-30T13:03:05.739Z,1.77
2022-09-30T13:05:33.543Z,1.77
2022-09-30T13:08:01.586Z,1.80
2022-09-30T13:10:30.262Z,2.00
2022-09-30T13:12:58.101Z,1.90
2022-09-30T13:15:27.223Z,2.08
2022-09-30T13:17:55.169Z,1.83
2022-09-30T13:20:23.054Z,1.92
2022-09-30T13:22:50.849Z,1.55
2022-09-30T13:25:19.448Z,1.60
2022-09-30T13:27:47.345Z,1.80
2022-09-30T13:30:15.786Z,1.80
2022-09-30T13:32:43.837Z,1.90
2022-09-30T13:35:12.126Z,1.90
2022-09-30T13:37:40.141Z,1.80
2022-09-30T13:40:08.036Z,1.90
2022-09-30T13:42:36.048Z,1.90
2022-09-30T13:45:04.139Z,1.85
2022-09-30T13:47:31.999Z,1.70
2022-09-30T13:49:59.817Z,1.90
2022-09-30T13:52:28.196Z,1.65
2022-09-30T13:54:55.984Z,1.38
2022-09-30T13:57:24.350Z,1.58
2022-09-30T13:59:52.213Z,1.50
2022-09-30T14:02:22.246Z,1.30
2022-09-30T14:04:50.415Z,1.30
2022-09-30T14:07:18.249Z,1.45
2022-09-30T14:09:47.343Z,1.35
2022-09-30T14:12:18.123Z,1.40
2022-09-30T14:14:45.972Z,1.10
2022-09-30T14:17:15.396Z,1.35
2022-09-30T14:19:43.426Z,1.20
2022-09-30T14:22:11.312Z,1.25
2022-09-30T14:24:40.423Z,1.20
2022-09-30T14:27:08.219Z,1.15
2022-09-30T14:29:36.120Z,1.27
2022-09-30T14:32:04.475Z,1.30
2022-09-30T14:34:33.256Z,1.20
2022-09-30T14:37:01.062Z,1.00
2022-09-30T14:39:29.169Z,1.10
2022-09-30T14:41:57.837Z,1.30
2022-09-30T14:44:25.713Z,1.20
2022-09-30T14:47:00.201Z,1.00
2022-09-30T14:49:34.182Z,1.10
2022-09-30T14:52:03.456Z,1.48
2022-09-30T14:54:31.274Z,1.40
2022-09-30T14:56:59.256Z,1.30
2022-09-30T14:59:27.769Z,1.10
2022-09-30T15:01:56.197Z,1.35
2022-09-30T15:04:24.068Z,1.23
2022-09-30T15:06:52.295Z,1.30
2022-09-30T15:09:20.215Z,1.20
2022-09-30T15:11:48.590Z,1.30
2022-09-30T15:14:17.900Z,1.23
2022-09-30T15:16:45.795Z,1.20
2022-09-30T15:19:13.757Z,1.33
2022-09-30T15:21:41.569Z,1.30
2022-09-30T15:24:09.435Z,1.30
2022-09-30T15:26:37.357Z,1.40
2022-09-30T15:29:05.667Z,1.20
2022-09-30T15:31:33.575Z,1.13
2022-09-30T15:34:01.438Z,1.40
2022-09-30T15:36:29.550Z,1.10
2022-09-30T15:38:57.684Z,1.35
2022-09-30T15:41:26.544Z,1.20
2022-09-30T15:43:54.560Z,1.50
2022-09-30T15:46:22.619Z,1.35
2022-09-30T15:48:50.476Z,1.40
2022-09-30T15:51:18.284Z,1.20
2022-09-30T15:53:46.163Z,1.30
2022-09-30T15:56:15.825Z,1.30
2022-09-30T15:58:46.554Z,1.20
2022-09-30T16:01:15.098Z,1.10
2022-09-30T16:03:46.266Z,1.20
2022-09-30T16:06:14.131Z,1.00
2022-09-30T16:08:42.064Z,1.20
2022-09-30T16:11:10.031Z,1.15
2022-09-30T16:13:38.291Z,1.08
2022-09-30T16:16:06.112Z,1.00
2022-09-30T16:18:34.870Z,1.10
2022-09-30T16:21:02.919Z,1.10
2022-09-30T16:23:31.005Z,1.10
2022-09-30T16:25:58.876Z,1.10
2022-09-30T16:28:27.089Z,1.10
2022-09-30T16:30:55.771Z,1.05
2022-09-30T16:33:23.639Z,1.40
2022-09-30T16:35:51.725Z,1.23
2022-09-30T16:38:20.111Z,1.02
2022-09-30T16:40:48.031Z,1.20
2022-09-30T16:43:17.278Z,1.10
2022-09-30T16:45:45.136Z,1.15
2022-09-30T16:48:12.973Z,1.10
2022-09-30T16:50:40.785Z,1.20
2022-09-30T16:53:09.809Z,1.40
2022-09-30T16:55:37.607Z,1.20
2022-09-30T16:58:05.960Z,1.20
2022-09-30T17:00:33.782Z,1.23
2022-09-30T17:03:01.611Z,1.20
2022-09-30T17:05:29.411Z,1.05
2022-09-30T17:07:57.247Z,1.02
2022-09-30T17:10:25.151Z,1.20
2022-09-30T17:12:53.834Z,1.23
2022-09-30T17:15:21.714Z,1.10
2022-09-30T17:17:49.490Z,1.10
2022-09-30T17:20:17.369Z,0.98
2022-09-30T17:22:45.154Z,1.17
2022-09-30T17:25:12.980Z,1.20
2022-09-30T17:27:40.899Z,1.15
2022-09-30T17:30:09.059Z,1.30
2022-09-30T17:32:36.997Z,1.15
2022-09-30T17:35:06.110Z,1.23
2022-09-30T17:37:34.012Z,1.20
2022-09-30T17:40:21.788Z,1.10
2022-09-30T17:43:07.224Z,1.00
2022-09-30T17:45:35.092Z,1.17
2022-09-30T17:48:02.936Z,1.40
2022-09-30T17:50:30.728Z,1.40
2022-09-30T17:52:58.620Z,1.23
2022-09-30T17:55:27.889Z,1.20
2022-09-30T17:57:57.061Z,1.30
2022-09-30T18:00:24.877Z,1.33
2022-09-30T18:02:52.739Z,1.23
2022-09-30T18:05:20.465Z,1.50
2022-09-30T18:07:48.258Z,1.50
2022-09-30T18:10:16.165Z,1.27
2022-09-30T18:12:43.950Z,1.40
2022-09-30T18:15:11.736Z,1.20
2022-09-30T18:17:39.520Z,1.45
2022-09-30T18:20:07.264Z,1.20
2022-09-30T18:22:35.034Z,1.45
2022-09-30T18:25:21.136Z,1.35
2022-09-30T18:27:48.879Z,1.30
2022-09-30T18:30:16.647Z,1.33
2022-09-30T18:32:44.301Z,1.48
2022-09-30T18:35:13.155Z,1.60
2022-09-30T18:37:42.347Z,1.40
2022-09-30T18:40:10.019Z,1.30
2022-09-30T18:42:38.874Z,1.50
2022-09-30T18:45:06.572Z,1.40
2022-09-30T18:47:34.224Z,1.55
2022-09-30T18:50:01.952Z,1.45
2022-09-30T18:52:29.678Z,1.52
2022-09-30T18:54:57.392Z,1.60
2022-09-30T18:57:25.040Z,1.38
2022-09-30T18:59:53.032Z,1.60
2022-09-30T19:02:20.806Z,1.45
2022-09-30T19:04:48.751Z,1.70
2022-09-30T19:07:16.450Z,1.58
2022-09-30T19:09:46.685Z,1.60
2022-09-30T19:12:15.016Z,1.50
2022-09-30T19:14:44.602Z,1.50
2022-09-30T19:17:12.472Z,1.70
2022-09-30T19:19:41.272Z,1.55
2022-09-30T19:22:10.627Z,1.60
2022-09-30T19:24:38.591Z,1.48
2022-09-30T19:27:06.244Z,1.65
2022-09-30T19:29:34.263Z,1.60
2022-09-30T19:32:02.003Z,1.60
2022-09-30T19:34:32.488Z,1.60
2022-09-30T19:37:00.437Z,1.83
2022-09-30T19:39:41.508Z,1.80
2022-09-30T19:42:15.143Z,1.90
2022-09-30T19:44:43.031Z,1.70
2022-09-30T19:47:11.166Z,1.70
2022-09-30T19:49:38.885Z,1.63
2022-09-30T19:52:15.946Z,1.80
2022-09-30T19:54:48.411Z,1.65
2022-09-30T19:57:16.276Z,1.58
2022-09-30T19:59:44.017Z,1.48
2022-09-30T20:02:11.792Z,1.92
2022-09-30T20:04:41.128Z,1.67
2022-09-30T20:07:08.907Z,1.80
2022-09-30T20:09:36.700Z,1.75
2022-09-30T20:12:04.536Z,1.70
2022-09-30T20:14:50.017Z,1.75
2022-09-30T20:17:17.919Z,2.05
2022-09-30T20:20:05.782Z,1.70
2022-09-30T20:22:33.526Z,1.80
2022-09-30T20:25:01.286Z,2.00
2022-09-30T20:27:32.900Z,1.80
2022-09-30T20:30:00.665Z,2.00
2022-09-30T20:32:30.834Z,1.90
2022-09-30T20:34:59.113Z,2.00
2022-09-30T20:37:26.781Z,1.83
2022-09-30T20:39:56.709Z,1.75
2022-09-30T20:42:28.194Z,1.90
2022-09-30T20:44:59.583Z,2.20
2022-09-30T20:47:27.364Z,2.05
2022-09-30T20:49:55.062Z,1.90
2022-09-30T20:52:22.718Z,2.00
2022-09-30T20:54:50.362Z,2.10
2022-09-30T20:57:18.084Z,2.00
2022-09-30T20:59:46.701Z,2.00
2022-09-30T21:02:15.135Z,2.00
2022-09-30T21:04:42.901Z,1.95
2022-09-30T21:07:10.672Z,2.03
2022-09-30T21:09:38.394Z,1.80
2022-09-30T21:12:09.556Z,2.10
2022-09-30T21:14:40.182Z,2.20
2022-09-30T21:17:08.277Z,2.00
2022-09-30T21:19:36.331Z,2.10
2022-09-30T21:22:04.062Z,2.10
2022-09-30T21:24:31.992Z,2.05
2022-09-30T21:27:01.573Z,2.13
2022-09-30T21:29:30.713Z,1.90
2022-09-30T21:31:58.637Z,2.08
2022-09-30T21:34:26.663Z,1.73
2022-09-30T21:36:54.572Z,2.10
2022-09-30T21:39:22.432Z,1.90
2022-09-30T21:41:50.381Z,2.00
2022-09-30T21:44:18.245Z,2.00
2022-09-30T21:46:48.692Z,2.30
2022-09-30T21:49:16.767Z,1.92
2022-09-30T21:51:44.623Z,1.88
2022-09-30T21:54:13.920Z,2.00
2022-09-30T21:56:42.796Z,1.92
2022-09-30T21:59:10.605Z,2.00
2022-09-30T22:01:38.521Z,2.13
2022-09-30T22:04:06.388Z,1.80
2022-09-30T22:06:34.121Z,2.03
2022-09-30T22:09:01.985Z,2.10
2022-09-30T22:11:29.952Z,2.08
2022-09-30T22:13:58.502Z,2.00
2022-09-30T22:16:27.313Z,2.25
2022-09-30T22:18:55.320Z,1.95
2022-09-30T22:21:23.132Z,2.28
2022-09-30T22:23:51.249Z,2.20
2022-09-30T22:26:19.077Z,2.33
2022-09-30T22:28:47.016Z,2.30
2022-09-30T22:31:14.784Z,2.10
2022-09-30T22:34:00.068Z,1.92
2022-09-30T22:36:45.377Z,2.20
2022-09-30T22:39:13.377Z,2.00
2022-09-30T22:41:41.149Z,1.90
2022-09-30T22:44:08.969Z,2.10
2022-09-30T22:46:36.724Z,2.10
2022-09-30T22:49:04.495Z,2.20
2022-09-30T22:51:33.156Z,2.08
2022-09-30T22:54:01.211Z,2.10
2022-09-30T22:56:29.012Z,2.20
2022-09-30T22:58:56.810Z,2.08
2022-09-30T23:01:24.648Z,2.10
2022-09-30T23:03:53.005Z,1.90
2022-09-30T23:06:20.743Z,2.15
2022-09-30T23:08:48.467Z,2.20
2022-09-30T23:11:16.504Z,1.95
2022-09-30T23:13:44.251Z,2.10
2022-09-30T23:16:11.927Z,2.25
2022-09-30T23:18:40.622Z,2.00
2022-09-30T23:21:08.831Z,2.25
2022-09-30T23:23:36.553Z,2.00
2022-09-30T23:26:04.239Z,2.30
2022-09-30T23:28:31.951Z,2.25
2022-09-30T23:31:00.122Z,2.17
2022-09-30T23:33:27.889Z,2.30
2022-09-30T23:35:56.532Z,2.10
2022-09-30T23:38:24.295Z,1.92
2022-09-30T23:40:52.509Z,1.90
2022-09-30T23:43:22.195Z,2.10
2022-09-30T23:45:49.922Z,2.20
2022-09-30T23:48:17.648Z,2.15
2022-09-30T23:50:45.735Z,2.10
2022-09-30T23:53:17.256Z,2.17
